Skip Navigation Links
NOAA logo - Click to go to the NOAA homepage
NOAA's National Weather Service
Alaska Aviation Weather Unit
  NWS logo - Click to go to the NWS homepage
Left Navbar Graphic     12 AKDT = 20 GMT

   
NOAA is celebrating 200 years of science, service, and stewardship. Visit the NOAA 200th celebration Web site to learn more.
USA.gov is the U.S. Government's official Web portal to all Federal, state and local government Web resources and services.
Facebook
NWS on Facebook

Important Change Regarding the AAWU Web Presence

 

Over the last several months, the AAWU has been working to navigate its webpages to a nationally supported server. Security, as well as other needs, have necessitated the change.  We have been given an extension for the site changeover while we diligently work at addressing feedback received. As of July 14, 2017, aawu.arh.noaa.gov will be discontinued. The new AAWU web address is weather.gov/aawu. It is now live and will run in-parallel with the old site until it is discontinued on July 14, 2017. Please continue to send any feedback or questions regarding the new webpages to nws.ar.aawu.webauthors@noaa.gov.  Thank you for your patience during this time of transition.
AAWU Home :: Display TAF Add Bookmark
METAR PAPH 251456Z AUTO 18006KT 10SM -RA OVC006 11/11 A3006 RMK AO2
 SLP183 P0002 60005 T01110111 56005=

METAR PAPH 251556Z AUTO 21007KT 10SM -RA OVC004 11/11 A3006 RMK AO2
 SLP181 P0002 T01110106=

METAR PAPH 251656Z AUTO 24010KT 10SM OVC004 12/11 A3005 RMK AO2 RAE22
     SLP178 P0001 T01170111=

SPECI PAPH 251735Z AUTO 23010KT 10SM OVC006 12/11 A3005 RMK AO2 CIG
     003V009=

METAR PAPH 251756Z AUTO 23009KT 10SM OVC006 12/11 A3005 RMK AO2 CIG
     005V010 SLP178 60008 T01170106 10117 20111 58003=

METAR PAPH 251856Z AUTO 24010KT 10SM OVC008 12/11 A3005 RMK AO2 CIG
     007V012 SLP178 T01220106=

METAR PAPH 251956Z AUTO 24012KT 10SM OVC008 12/11 A3004 RMK AO2 CIG
     007V012 SLP177 T01220106=


NOAA's National Weather Service
Alaska Aviation Weather Unit
6930 Sand Lake Road
Anchorage, AK 99502-1845
Disclaimer
Credits
Glossary
Privacy Policy
About Us
Career Opportunities
Contact AAWU Internet Services Site last modified: April, 17th 2012